Данни от 19.05.2022 г. 12:01:56

Температура вътрешна: 22.6 °C
Температура външна: 16.9 °C
Атмосферно налягане: 1010.7 hPa
Атмосферно налягане на морско равнище: 1028.7 hPa
Влажност: 44.4 %



История от последните 24 часа

Дата и часTin [°C]P [hPa]Psl [hPa]H [%]Tout [°C]
   19.05.2022 г. 12:00:56      22.6      1010.7      1028.7      44.3      17.4   
   19.05.2022 г. 11:30:57      22.5      1010.8      1028.8      45.0      17.0   
   19.05.2022 г. 11:00:56      22.6      1010.9      1029.0      45.1      16.3   
   19.05.2022 г. 10:30:57      22.5      1010.9      1029.0      45.3      15.5   
   19.05.2022 г. 10:00:56      22.5      1011.0      1029.1      46.1      14.3   
   19.05.2022 г. 09:30:57      22.5      1011.0      1029.1      46.3      13.3   
   19.05.2022 г. 09:00:56      22.5      1010.9      1029.0      46.7      12.3   
   19.05.2022 г. 08:30:57      22.5      1010.9      1029.0      46.3      11.4   
   19.05.2022 г. 08:00:56      22.5      1010.9      1028.9      46.3      10.5   
   19.05.2022 г. 07:30:57      22.4      1010.8      1028.8      46.3      9.5   
   19.05.2022 г. 07:00:56      22.4      1010.6      1028.6      46.0      8.5   
   19.05.2022 г. 06:30:57      22.3      1010.2      1028.2      46.1      7.4   
   19.05.2022 г. 06:00:56      22.2      1010.0      1028.1      44.9      6.8   
   19.05.2022 г. 05:30:57      22.0      1010.0      1028.0      44.2      6.4   
   19.05.2022 г. 05:00:57      21.7      1009.8      1027.9      43.3      7.5   
   19.05.2022 г. 04:30:57      21.3      1009.8      1027.8      42.0      9.0   
   19.05.2022 г. 04:00:57      20.1      1009.6      1027.6      41.6      8.3   
   19.05.2022 г. 03:30:57      20.0      1009.5      1027.5      41.3      7.9   
   19.05.2022 г. 03:00:57      20.2      1009.6      1027.6      42.1      8.9   
   19.05.2022 г. 02:30:57      20.4      1009.5      1027.5      41.3      8.9   
   19.05.2022 г. 02:00:57      20.6      1009.4      1027.4      42.0      8.8   
   19.05.2022 г. 01:30:56      20.8      1009.4      1027.4      41.7      8.6   
   19.05.2022 г. 01:00:57      20.8      1009.4      1027.4      41.1      8.9   
   19.05.2022 г. 00:30:56      21.1      1009.2      1027.2      41.1      8.3   
   19.05.2022 г. 00:00:57      21.2      1009.1      1027.1      41.8      8.3   
   18.05.2022 г. 23:30:56      21.7      1008.9      1026.9      41.5      10.0   
   18.05.2022 г. 23:00:57      22.3      1008.6      1026.6      42.7      9.5   
   18.05.2022 г. 22:30:56      22.5      1008.4      1026.4      43.1      9.5   
   18.05.2022 г. 22:00:57      23.2      1007.9      1025.9      45.2      9.6   
   18.05.2022 г. 21:30:56      24.1      1007.4      1025.4      50.4      9.9   
   18.05.2022 г. 21:00:57      24.0      1006.9      1024.9      50.9      10.1   
   18.05.2022 г. 20:30:56      24.1      1006.5      1024.4      51.1      11.4   
   18.05.2022 г. 20:00:57      24.1      1005.9      1023.8      50.9      12.0   
   18.05.2022 г. 19:30:56      24.2      1005.5      1023.4      50.7      14.3   
   18.05.2022 г. 19:00:57      24.2      1005.0      1022.9      50.9      14.0   
   18.05.2022 г. 18:30:56      24.2      1004.7      1022.7      51.2      15.1   
   18.05.2022 г. 18:00:57      24.2      1004.5      1022.4      50.7      14.5   
   18.05.2022 г. 17:30:56      24.1      1004.6      1022.5      50.3      15.0   
   18.05.2022 г. 17:00:57      24.1      1004.3      1022.2      49.9      14.6   
   18.05.2022 г. 16:30:56      24.1      1004.5      1022.4      49.9      14.2   
   18.05.2022 г. 16:00:57      24.1      1004.2      1022.1      50.3      13.0   
   18.05.2022 г. 15:30:56      24.2      1003.8      1021.7      50.9      13.3   
   18.05.2022 г. 15:00:57      24.2      1003.5      1021.4      51.2      14.1   
   18.05.2022 г. 14:30:56      24.2      1003.7      1021.6      50.8      15.3   
   18.05.2022 г. 14:00:57      24.1      1003.2      1021.1      51.3      16.1   
   18.05.2022 г. 13:30:56      24.1      1002.4      1020.3      51.9      17.3   
   18.05.2022 г. 13:00:57      24.1      1001.4      1019.3      52.3      16.8   
   18.05.2022 г. 12:30:57      24.1      1001.3      1019.2      52.7      17.6   

BaroSL graphic

TEMPE graphic